createdAt,value
2019-06-10T00:00:12.699Z,76.32
2019-06-10T00:01:06.986Z,76.14
2019-06-10T00:02:05.856Z,76.52
2019-06-10T00:03:05.683Z,76.23
2019-06-10T00:04:08.432Z,77.09
2019-06-10T00:05:06.004Z,76.67
2019-06-10T00:06:05.673Z,77.29
2019-06-10T00:07:05.840Z,77.25
2019-06-10T00:08:05.818Z,77.83
2019-06-10T00:09:07.998Z,77.83
2019-06-10T00:10:06.154Z,77.53
2019-06-10T00:11:07.447Z,77.92
2019-06-10T00:12:06.434Z,77.83
2019-06-10T00:13:07.334Z,77.73
2019-06-10T00:14:07.286Z,77.92
2019-06-10T00:15:06.531Z,77.83
2019-06-10T00:16:07.849Z,78.21
2019-06-10T00:17:07.919Z,78.50
2019-06-10T00:18:24.605Z,77.92
2019-06-10T00:19:09.291Z,78.69
2019-06-10T00:20:08.211Z,78.78
2019-06-10T00:21:08.221Z,78.88
2019-06-10T00:22:08.419Z,78.11
2019-06-10T00:23:08.297Z,78.40
2019-06-10T00:24:08.533Z,78.50
2019-06-10T00:25:08.547Z,78.50
2019-06-10T00:26:08.913Z,78.69
2019-06-10T00:27:09.352Z,78.50
2019-06-10T00:28:08.969Z,78.69
2019-06-10T00:29:09.684Z,78.69
2019-06-10T00:30:09.462Z,78.40
2019-06-10T00:31:08.663Z,79.17
2019-06-10T00:32:10.361Z,79.07
2019-06-10T00:33:09.973Z,79.36
2019-06-10T00:34:09.970Z,79.27
2019-06-10T00:35:10.099Z,79.07
2019-06-10T00:36:13.138Z,79.07
2019-06-10T00:37:14.302Z,79.07
2019-06-10T00:38:11.274Z,78.88
2019-06-10T00:39:13.096Z,79.55
2019-06-10T00:40:13.687Z,79.55
2019-06-10T00:41:13.663Z,79.27
2019-06-10T00:42:14.555Z,79.27
2019-06-10T00:43:13.236Z,79.27
2019-06-10T00:44:12.291Z,79.75
2019-06-10T00:45:17.453Z,79.65
2019-06-10T00:46:13.058Z,80.13
2019-06-10T00:47:14.709Z,79.46
2019-06-10T00:48:21.454Z,79.46
2019-06-10T00:49:14.382Z,79.55
2019-06-10T00:50:14.550Z,79.36
2019-06-10T00:51:12.895Z,79.94
2019-06-10T00:52:13.543Z,79.46
2019-06-10T00:53:14.226Z,79.75
2019-06-10T00:54:15.281Z,79.46
2019-06-10T00:55:12.530Z,80.22
2019-06-10T00:56:14.005Z,80.13
2019-06-10T00:57:12.452Z,80.61
2019-06-10T00:58:13.906Z,80.61
2019-06-10T00:59:13.386Z,80.80
2019-06-10T01:00:24.485Z,80.90
2019-06-10T01:01:14.426Z,80.71
2019-06-10T01:02:14.304Z,80.80
2019-06-10T01:03:15.107Z,80.90
2019-06-10T01:04:16.184Z,80.80
2019-06-10T01:05:15.301Z,81.28
2019-06-10T01:06:15.086Z,80.90
2019-06-10T01:07:14.757Z,81.19
2019-06-10T01:08:15.549Z,81.19
2019-06-10T01:09:14.908Z,80.99
2019-06-10T01:10:14.578Z,81.09
2019-06-10T01:11:21.266Z,81.19
2019-06-10T01:12:15.021Z,80.99
2019-06-10T01:13:15.476Z,80.99
2019-06-10T01:14:15.439Z,80.99
2019-06-10T01:15:15.294Z,81.48
2019-06-10T01:16:15.535Z,81.19
2019-06-10T01:17:15.509Z,81.19
2019-06-10T01:18:31.981Z,80.99
2019-06-10T01:19:15.813Z,81.09
2019-06-10T01:20:16.044Z,81.28
2019-06-10T01:21:15.566Z,81.19
2019-06-10T01:22:15.931Z,80.99
2019-06-10T01:23:15.722Z,81.38
2019-06-10T01:24:15.303Z,81.19
2019-06-10T01:25:15.434Z,80.99
2019-06-10T01:26:16.407Z,80.71
2019-06-10T01:27:15.699Z,80.90
2019-06-10T01:28:16.944Z,81.48
2019-06-10T01:29:15.961Z,81.76
2019-06-10T01:30:21.624Z,81.19
2019-06-10T01:31:20.648Z,81.57
2019-06-10T01:32:17.617Z,81.57
2019-06-10T01:33:17.630Z,81.57
2019-06-10T01:34:16.625Z,81.67
2019-06-10T01:35:17.488Z,81.86
2019-06-10T01:36:18.102Z,81.86
2019-06-10T01:37:17.625Z,81.76
2019-06-10T01:38:18.292Z,82.34
2019-06-10T01:39:18.056Z,82.24
2019-06-10T01:40:17.990Z,81.86
2019-06-10T01:41:17.547Z,82.43
2019-06-10T01:42:17.674Z,82.63
2019-06-10T01:43:18.457Z,82.34
2019-06-10T01:44:17.943Z,82.34
2019-06-10T01:45:18.085Z,82.73
2019-06-10T01:46:18.205Z,83.36
2019-06-10T01:47:18.340Z,83.54
2019-06-10T01:48:20.796Z,83.84
2019-06-10T01:49:18.615Z,84.51
2019-06-10T01:50:19.655Z,83.93
2019-06-10T01:51:21.116Z,83.84
2019-06-10T01:52:21.055Z,84.31
2019-06-10T01:53:21.392Z,84.70
2019-06-10T01:54:21.286Z,84.41
2019-06-10T01:55:21.653Z,84.60
2019-06-10T01:56:21.380Z,84.51
2019-06-10T01:57:21.968Z,84.89
2019-06-10T01:58:23.344Z,85.08
2019-06-10T01:59:22.114Z,84.99
2019-06-10T02:00:25.676Z,85.66
2019-06-10T02:01:23.302Z,84.89
2019-06-10T02:02:23.463Z,85.18
2019-06-10T02:03:23.705Z,85.85
2019-06-10T02:04:22.227Z,85.18
2019-06-10T02:05:22.859Z,85.80
2019-06-10T02:06:25.422Z,85.37
2019-06-10T02:07:23.088Z,85.47
2019-06-10T02:08:22.263Z,85.08
2019-06-10T02:09:23.181Z,85.22
2019-06-10T02:10:23.028Z,85.13
2019-06-10T02:11:23.418Z,85.13
2019-06-10T02:12:24.232Z,85.13
2019-06-10T02:13:22.087Z,85.13
2019-06-10T02:14:24.200Z,85.80
2019-06-10T02:15:22.761Z,85.18
2019-06-10T02:16:24.022Z,85.99
2019-06-10T02:17:23.945Z,85.80
2019-06-10T02:18:22.543Z,85.61
2019-06-10T02:19:23.051Z,85.51
2019-06-10T02:20:23.855Z,85.41
2019-06-10T02:21:24.487Z,85.80
2019-06-10T02:22:24.241Z,85.32
2019-06-10T02:23:23.320Z,85.66
2019-06-10T02:24:23.638Z,85.66
2019-06-10T02:25:23.404Z,85.18
2019-06-10T02:26:23.738Z,85.32
2019-06-10T02:27:23.679Z,86.09
2019-06-10T02:28:23.810Z,85.80
2019-06-10T02:29:23.948Z,85.61
2019-06-10T02:30:38.892Z,85.80
2019-06-10T02:31:30.482Z,85.95
2019-06-10T02:32:31.607Z,85.99
2019-06-10T02:33:30.908Z,86.14
2019-06-10T02:34:27.399Z,85.80
2019-06-10T02:35:37.548Z,85.89
2019-06-10T02:36:31.312Z,85.18
2019-06-10T02:37:31.892Z,85.03
2019-06-10T02:38:34.014Z,84.55
2019-06-10T02:39:33.434Z,84.64
2019-06-10T02:40:31.727Z,85.41
2019-06-10T02:41:31.848Z,85.51
2019-06-10T02:42:30.321Z,84.51
2019-06-10T02:43:31.913Z,84.84
2019-06-10T02:44:32.460Z,84.74
2019-06-10T02:45:32.411Z,84.74
2019-06-10T02:46:31.219Z,84.94
2019-06-10T02:47:32.083Z,84.70
2019-06-10T02:48:30.270Z,84.12
2019-06-10T02:49:46.232Z,84.55
2019-06-10T02:50:32.493Z,84.70
2019-06-10T02:51:30.837Z,84.45
2019-06-10T02:52:32.888Z,84.70
2019-06-10T02:53:30.854Z,84.60
2019-06-10T02:54:31.424Z,84.70
2019-06-10T02:55:30.881Z,84.45
2019-06-10T02:56:30.753Z,85.08
2019-06-10T02:57:34.953Z,85.18
2019-06-10T02:58:34.164Z,85.47
2019-06-10T02:59:31.798Z,85.37
2019-06-10T03:00:39.721Z,85.80
2019-06-10T03:01:32.581Z,85.89
2019-06-10T03:02:31.509Z,85.85
2019-06-10T03:03:39.347Z,85.95
2019-06-10T03:04:32.525Z,86.05
2019-06-10T03:05:39.347Z,85.85
2019-06-10T03:06:34.867Z,85.85
2019-06-10T03:07:31.644Z,86.14
2019-06-10T03:08:31.746Z,85.95
2019-06-10T03:09:31.975Z,86.24
2019-06-10T03:10:32.824Z,86.05
2019-06-10T03:11:33.454Z,85.85
2019-06-10T03:12:29.642Z,85.85
2019-06-10T03:13:29.778Z,86.14
2019-06-10T03:14:29.929Z,85.95
2019-06-10T03:15:32.044Z,86.18
2019-06-10T03:16:32.760Z,86.14
2019-06-10T03:17:32.332Z,85.80
2019-06-10T03:18:32.715Z,85.80
2019-06-10T03:19:44.157Z,86.05
2019-06-10T03:20:32.030Z,85.13
2019-06-10T03:21:32.374Z,85.85
2019-06-10T03:22:32.739Z,85.18
2019-06-10T03:23:31.991Z,85.18
2019-06-10T03:24:32.800Z,85.66
2019-06-10T03:25:32.799Z,86.05
2019-06-10T03:26:32.298Z,85.57
2019-06-10T03:27:32.901Z,85.71
2019-06-10T03:28:32.212Z,86.28
2019-06-10T03:29:32.752Z,86.18
2019-06-10T03:30:47.233Z,85.66
2019-06-10T03:31:40.919Z,85.89
2019-06-10T03:32:40.368Z,85.57
2019-06-10T03:33:40.717Z,85.89
2019-06-10T03:34:41.285Z,86.09
2019-06-10T03:35:33.042Z,86.18
2019-06-10T03:36:32.844Z,86.09
2019-06-10T03:37:32.993Z,86.47
2019-06-10T03:38:33.111Z,86.18
2019-06-10T03:39:33.241Z,86.09
2019-06-10T03:40:33.374Z,85.99
2019-06-10T03:41:33.506Z,85.99
2019-06-10T03:42:33.643Z,86.09
2019-06-10T03:43:33.782Z,85.95
2019-06-10T03:44:33.907Z,85.89
2019-06-10T03:45:34.041Z,86.09
2019-06-10T03:46:34.170Z,85.89
2019-06-10T03:47:34.302Z,86.57
2019-06-10T03:48:34.441Z,86.18
2019-06-10T03:49:46.646Z,85.89
2019-06-10T03:50:34.704Z,86.09
2019-06-10T03:51:34.836Z,86.18
2019-06-10T03:52:34.963Z,86.38
2019-06-10T03:53:35.097Z,85.99
2019-06-10T03:54:35.241Z,85.99
2019-06-10T03:55:35.371Z,85.66
2019-06-10T03:56:35.500Z,86.09
2019-06-10T03:57:35.637Z,86.28
2019-06-10T03:58:35.769Z,86.18
2019-06-10T03:59:35.900Z,86.09
2019-06-10T04:00:37.065Z,85.99
2019-06-10T04:01:36.178Z,86.24
2019-06-10T04:02:36.308Z,86.38
2019-06-10T04:03:36.447Z,86.14
2019-06-10T04:04:36.576Z,86.05
2019-06-10T04:05:36.700Z,87.29
2019-06-10T04:06:36.882Z,87.49
2019-06-10T04:07:37.005Z,88.93
2019-06-10T04:08:37.137Z,89.55
2019-06-10T04:09:37.262Z,90.22
2019-06-10T04:10:37.410Z,90.70
2019-06-10T04:11:37.599Z,90.32
2019-06-10T04:12:37.722Z,90.80
2019-06-10T04:13:37.857Z,91.09
2019-06-10T04:14:37.987Z,91.47
2019-06-10T04:15:38.120Z,91.47
2019-06-10T04:16:38.261Z,90.99
2019-06-10T04:17:38.386Z,90.80
2019-06-10T04:18:38.521Z,91.28
2019-06-10T04:19:38.649Z,91.19
2019-06-10T04:20:38.786Z,91.38
2019-06-10T04:21:38.924Z,91.19
2019-06-10T04:22:39.066Z,91.47
2019-06-10T04:23:39.215Z,91.86
2019-06-10T04:24:39.350Z,91.66
2019-06-10T04:25:39.477Z,91.57
2019-06-10T04:26:39.604Z,91.38
2019-06-10T04:27:42.252Z,91.38
2019-06-10T04:28:39.878Z,91.66
2019-06-10T04:29:42.060Z,91.66
2019-06-10T04:30:40.141Z,91.47
2019-06-10T04:31:42.296Z,91.57
2019-06-10T04:32:42.780Z,91.57
2019-06-10T04:33:42.078Z,91.19
2019-06-10T04:34:42.743Z,91.38
2019-06-10T04:35:42.728Z,91.19
2019-06-10T04:36:42.317Z,91.09
2019-06-10T04:37:42.808Z,91.09
2019-06-10T04:38:43.260Z,91.23
2019-06-10T04:39:42.736Z,90.46
2019-06-10T04:40:43.082Z,91.33
2019-06-10T04:41:42.678Z,91.33
2019-06-10T04:42:43.607Z,90.66
2019-06-10T04:43:43.157Z,90.56
2019-06-10T04:44:42.360Z,90.84
2019-06-10T04:45:42.950Z,90.66
2019-06-10T04:46:42.900Z,90.46
2019-06-10T04:47:43.191Z,91.13
2019-06-10T04:48:42.874Z,91.33
2019-06-10T04:49:42.931Z,90.37
2019-06-10T04:50:46.310Z,90.84
2019-06-10T04:51:43.424Z,90.66
2019-06-10T04:52:43.278Z,90.46
2019-06-10T04:53:43.735Z,90.27
2019-06-10T04:54:43.379Z,90.27
2019-06-10T04:55:43.511Z,90.56
2019-06-10T04:56:43.660Z,90.56
2019-06-10T04:57:43.791Z,90.66
2019-06-10T04:58:43.932Z,90.75
2019-06-10T04:59:44.051Z,90.56
2019-06-10T05:00:44.186Z,90.56
2019-06-10T05:01:44.328Z,90.27
2019-06-10T05:02:44.453Z,90.66
2019-06-10T05:03:44.593Z,90.56
2019-06-10T05:04:44.721Z,90.66
2019-06-10T05:05:44.849Z,90.66
2019-06-10T05:06:44.979Z,90.80
2019-06-10T05:07:45.114Z,90.60
2019-06-10T05:08:45.249Z,90.60
2019-06-10T05:09:45.386Z,90.03
2019-06-10T05:10:45.515Z,89.83
2019-06-10T05:11:45.698Z,89.93
2019-06-10T05:12:45.810Z,90.12
2019-06-10T05:13:45.945Z,89.93
2019-06-10T05:14:46.075Z,89.74
2019-06-10T05:15:46.250Z,90.12
2019-06-10T05:16:46.367Z,90.31
2019-06-10T05:17:46.504Z,89.54
2019-06-10T05:18:46.636Z,90.22
2019-06-10T05:19:46.795Z,89.93
2019-06-10T05:20:57.728Z,89.83
2019-06-10T05:21:47.045Z,89.83
2019-06-10T05:22:47.181Z,89.45
2019-06-10T05:23:47.327Z,89.26
2019-06-10T05:24:47.482Z,89.16
2019-06-10T05:25:47.610Z,89.36
2019-06-10T05:26:47.737Z,89.45
2019-06-10T05:27:47.890Z,88.78
2019-06-10T05:28:48.021Z,89.36
2019-06-10T05:29:48.162Z,88.87
2019-06-10T05:30:48.304Z,89.01
2019-06-10T05:31:48.439Z,88.92
2019-06-10T05:32:48.570Z,89.01
2019-06-10T05:33:48.702Z,89.64
2019-06-10T05:34:48.834Z,89.40
2019-06-10T05:35:48.960Z,89.01
2019-06-10T05:36:49.098Z,89.30
2019-06-10T05:37:49.222Z,89.30
2019-06-10T05:38:49.355Z,89.40
2019-06-10T05:39:49.494Z,89.30
2019-06-10T05:40:51.988Z,89.59
2019-06-10T05:41:50.829Z,89.11
2019-06-10T05:42:49.897Z,89.11
2019-06-10T05:43:52.112Z,89.45
2019-06-10T05:44:52.288Z,89.59
2019-06-10T05:45:50.327Z,89.21
2019-06-10T05:46:52.657Z,89.21
2019-06-10T05:47:52.999Z,88.97
2019-06-10T05:48:52.658Z,89.21
2019-06-10T05:49:52.788Z,89.21
2019-06-10T05:51:00.189Z,89.07
2019-06-10T05:51:52.703Z,89.36
2019-06-10T05:52:52.033Z,89.64
2019-06-10T05:53:52.824Z,89.16
2019-06-10T05:54:52.102Z,89.54
2019-06-10T05:55:52.955Z,88.97
2019-06-10T05:56:52.199Z,89.30
2019-06-10T05:57:53.257Z,89.64
2019-06-10T05:58:52.589Z,89.26
2019-06-10T05:59:52.367Z,89.07
2019-06-10T06:00:53.152Z,88.82
2019-06-10T06:01:53.859Z,88.63
2019-06-10T06:02:52.612Z,88.73
2019-06-10T06:03:53.126Z,88.59
2019-06-10T06:04:53.143Z,88.24
2019-06-10T06:05:53.018Z,88.10
2019-06-10T06:06:53.307Z,87.76
2019-06-10T06:08:02.275Z,88.24
2019-06-10T06:08:53.570Z,88.15
2019-06-10T06:09:53.541Z,88.49
2019-06-10T06:10:53.675Z,88.73
2019-06-10T06:11:53.809Z,88.59
2019-06-10T06:12:53.936Z,88.87
2019-06-10T06:13:54.100Z,89.83
2019-06-10T06:14:54.225Z,89.64
2019-06-10T06:15:54.356Z,90.22
2019-06-10T06:16:54.491Z,90.70
2019-06-10T06:18:06.091Z,91.37
2019-06-10T06:18:54.801Z,90.89
2019-06-10T06:19:54.938Z,90.60
2019-06-10T06:20:55.066Z,90.89
2019-06-10T06:21:55.206Z,91.28
2019-06-10T06:22:55.330Z,90.89
2019-06-10T06:23:55.463Z,91.85
2019-06-10T06:24:55.591Z,92.05
2019-06-10T06:25:55.760Z,92.91
2019-06-10T06:26:55.874Z,92.72
2019-06-10T06:27:56.005Z,92.33
2019-06-10T06:28:56.148Z,92.62
2019-06-10T06:29:56.294Z,92.76
2019-06-10T06:30:56.420Z,92.38
2019-06-10T06:31:56.552Z,92.76
2019-06-10T06:32:56.677Z,92.67
2019-06-10T06:33:56.814Z,92.76
2019-06-10T06:34:56.949Z,92.57
2019-06-10T06:35:57.080Z,91.80
2019-06-10T06:36:57.216Z,91.90
2019-06-10T06:37:57.357Z,92.19
2019-06-10T06:38:57.478Z,92.67
2019-06-10T06:39:57.660Z,92.76
2019-06-10T06:40:57.766Z,93.34
2019-06-10T06:41:57.923Z,92.76
2019-06-10T06:42:58.037Z,93.19
2019-06-10T06:43:58.168Z,92.61
2019-06-10T06:44:58.299Z,92.52
2019-06-10T06:45:58.420Z,92.13
2019-06-10T06:46:58.571Z,92.13
2019-06-10T06:47:58.707Z,92.43
2019-06-10T06:48:58.834Z,91.75
2019-06-10T06:49:58.969Z,91.56
2019-06-10T06:51:04.359Z,91.66
2019-06-10T06:51:59.537Z,91.70
2019-06-10T06:53:19.365Z,91.94
2019-06-10T06:53:59.513Z,91.89
2019-06-10T06:54:59.649Z,91.51
2019-06-10T06:55:59.866Z,90.93
2019-06-10T06:57:03.230Z,90.73
2019-06-10T06:58:00.073Z,90.93
2019-06-10T06:59:02.378Z,90.93
2019-06-10T07:00:00.341Z,90.16
2019-06-10T07:01:09.762Z,89.97
2019-06-10T07:02:02.691Z,90.16
2019-06-10T07:03:03.008Z,90.83
2019-06-10T07:04:02.628Z,90.83
2019-06-10T07:05:03.191Z,89.68
2019-06-10T07:06:02.734Z,90.26
2019-06-10T07:07:02.633Z,88.81
2019-06-10T07:08:02.363Z,90.26
2019-06-10T07:09:07.752Z,89.97
2019-06-10T07:10:03.355Z,89.39
2019-06-10T07:11:02.846Z,90.16
2019-06-10T07:12:02.540Z,89.97
2019-06-10T07:13:02.825Z,89.49
2019-06-10T07:14:03.784Z,90.06
2019-06-10T07:15:04.327Z,90.16
2019-06-10T07:16:03.168Z,90.30
2019-06-10T07:17:03.953Z,89.43
2019-06-10T07:18:02.780Z,89.15
2019-06-10T07:19:02.922Z,89.24
2019-06-10T07:20:03.333Z,88.76
2019-06-10T07:21:03.386Z,88.57
2019-06-10T07:22:12.277Z,87.70
2019-06-10T07:23:03.472Z,88.09
2019-06-10T07:24:03.631Z,87.70
2019-06-10T07:25:06.522Z,88.18
2019-06-10T07:26:03.899Z,88.85
2019-06-10T07:27:04.025Z,89.15
2019-06-10T07:28:04.150Z,88.47
2019-06-10T07:29:04.273Z,88.38
2019-06-10T07:30:11.419Z,88.47
2019-06-10T07:31:19.488Z,88.09
2019-06-10T07:32:04.716Z,87.99
2019-06-10T07:33:04.845Z,88.38
2019-06-10T07:34:04.978Z,87.99
2019-06-10T07:35:05.104Z,88.67
2019-06-10T07:36:05.275Z,89.05
2019-06-10T07:37:05.408Z,87.99
2019-06-10T07:38:05.540Z,87.99
2019-06-10T07:39:05.675Z,87.90
2019-06-10T07:40:05.816Z,87.22
2019-06-10T07:41:05.947Z,87.08
2019-06-10T07:42:06.086Z,86.60
2019-06-10T07:43:06.245Z,87.37
2019-06-10T07:44:06.391Z,86.69
2019-06-10T07:45:07.107Z,87.08
2019-06-10T07:46:06.682Z,86.83
2019-06-10T07:47:06.800Z,86.99
2019-06-10T07:48:06.941Z,87.56
2019-06-10T07:49:07.087Z,86.69
2019-06-10T07:50:07.212Z,86.69
2019-06-10T07:51:07.346Z,86.31
2019-06-10T07:52:15.601Z,86.22
2019-06-10T07:53:07.612Z,86.22
2019-06-10T07:54:07.747Z,86.99
2019-06-10T07:55:07.875Z,85.93
2019-06-10T07:56:08.014Z,86.69
2019-06-10T07:57:08.138Z,86.22
2019-06-10T07:58:08.278Z,86.22
2019-06-10T07:59:08.423Z,86.12
2019-06-10T08:00:08.557Z,86.51
2019-06-10T08:01:08.695Z,86.45
2019-06-10T08:02:08.847Z,87.12
2019-06-10T08:03:08.979Z,85.64
2019-06-10T08:04:09.108Z,86.16
2019-06-10T08:05:09.265Z,86.07
2019-06-10T08:06:09.411Z,86.26
2019-06-10T08:07:09.544Z,86.16
2019-06-10T08:08:09.729Z,87.03
2019-06-10T08:09:09.838Z,85.30
2019-06-10T08:10:09.984Z,85.58
2019-06-10T08:11:10.143Z,86.16
2019-06-10T08:12:12.597Z,86.16
2019-06-10T08:13:12.025Z,86.35
2019-06-10T08:14:12.826Z,84.81
2019-06-10T08:15:12.475Z,85.20
2019-06-10T08:16:13.011Z,84.66
2019-06-10T08:17:12.931Z,85.14
2019-06-10T08:18:13.138Z,84.91
2019-06-10T08:19:26.302Z,83.61
2019-06-10T08:20:13.317Z,83.66
2019-06-10T08:21:12.264Z,83.99
2019-06-10T08:22:13.159Z,83.95
2019-06-10T08:23:12.619Z,84.09
2019-06-10T08:24:12.667Z,84.09
2019-06-10T08:25:12.451Z,84.66
2019-06-10T08:26:12.850Z,84.28
2019-06-10T08:27:12.338Z,84.56
2019-06-10T08:28:13.419Z,82.74
2019-06-10T08:29:12.747Z,81.68
2019-06-10T08:30:21.763Z,82.06
2019-06-10T08:31:12.873Z,82.83
2019-06-10T08:32:13.288Z,82.35
2019-06-10T08:33:13.757Z,83.70
2019-06-10T08:34:13.550Z,82.97
2019-06-10T08:35:13.441Z,82.87
2019-06-10T08:36:13.830Z,82.83
2019-06-10T08:37:13.805Z,82.68
2019-06-10T08:38:13.847Z,82.59
2019-06-10T08:39:16.014Z,82.39
2019-06-10T08:40:14.135Z,83.16
2019-06-10T08:41:14.262Z,83.36
2019-06-10T08:42:14.399Z,83.94
2019-06-10T08:43:14.536Z,84.32
2019-06-10T08:44:14.666Z,83.55
2019-06-10T08:45:14.863Z,83.26
2019-06-10T08:46:14.978Z,81.81
2019-06-10T08:47:15.104Z,82.68
2019-06-10T08:48:15.246Z,82.10
2019-06-10T08:49:15.404Z,81.14
2019-06-10T08:50:15.540Z,81.14
2019-06-10T08:51:15.661Z,82.97
2019-06-10T08:52:15.795Z,82.49
2019-06-10T08:53:18.138Z,81.91
2019-06-10T08:54:16.086Z,82.49
2019-06-10T08:55:16.225Z,80.85
2019-06-10T08:56:16.363Z,81.14
2019-06-10T08:57:16.494Z,81.91
2019-06-10T08:58:16.622Z,80.85
2019-06-10T08:59:16.758Z,79.98
2019-06-10T09:00:18.716Z,80.56
2019-06-10T09:01:17.035Z,79.79
2019-06-10T09:02:17.161Z,80.76
2019-06-10T09:03:17.304Z,81.33
2019-06-10T09:04:17.433Z,81.24
2019-06-10T09:05:17.589Z,82.01
2019-06-10T09:06:17.719Z,81.27
2019-06-10T09:07:17.862Z,82.34
2019-06-10T09:08:17.997Z,81.66
2019-06-10T09:09:18.141Z,80.89
2019-06-10T09:10:18.269Z,80.79
2019-06-10T09:11:20.559Z,81.37
2019-06-10T09:12:32.212Z,79.93
2019-06-10T09:13:18.675Z,80.64
2019-06-10T09:14:18.813Z,80.60
2019-06-10T09:15:18.936Z,81.37
2019-06-10T09:16:19.581Z,81.47
2019-06-10T09:17:19.226Z,80.89
2019-06-10T09:18:20.045Z,80.99
2019-06-10T09:19:19.490Z,79.64
2019-06-10T09:20:19.633Z,79.64
2019-06-10T09:21:22.144Z,79.00
2019-06-10T09:22:19.894Z,78.13
2019-06-10T09:23:23.181Z,78.48
2019-06-10T09:24:22.254Z,77.75
2019-06-10T09:25:22.631Z,78.91
2019-06-10T09:26:22.923Z,77.55
2019-06-10T09:27:26.050Z,77.65
2019-06-10T09:28:22.956Z,77.26
2019-06-10T09:29:22.304Z,76.40
2019-06-10T09:30:22.705Z,77.13
2019-06-10T09:31:23.293Z,77.07
2019-06-10T09:32:23.042Z,76.50
2019-06-10T09:33:22.560Z,76.40
2019-06-10T09:34:23.752Z,76.59
2019-06-10T09:35:24.041Z,78.13
2019-06-10T09:36:23.537Z,79.00
2019-06-10T09:37:23.314Z,80.39
2019-06-10T09:38:22.385Z,78.36
2019-06-10T09:39:23.022Z,78.66
2019-06-10T09:40:22.920Z,78.08
2019-06-10T09:41:36.051Z,77.69
2019-06-10T09:42:23.843Z,76.95
2019-06-10T09:43:22.794Z,76.15
2019-06-10T09:44:23.004Z,77.01
2019-06-10T09:45:22.985Z,77.59
2019-06-10T09:46:23.329Z,77.69
2019-06-10T09:47:23.260Z,77.11
2019-06-10T09:48:23.669Z,77.05
2019-06-10T09:49:23.561Z,77.15
2019-06-10T09:50:23.687Z,75.22
2019-06-10T09:51:23.829Z,75.12
2019-06-10T09:52:24.129Z,75.70
2019-06-10T09:53:33.807Z,76.28
2019-06-10T09:54:24.233Z,76.37
2019-06-10T09:55:24.388Z,75.47
2019-06-10T09:56:24.526Z,75.37
2019-06-10T09:57:24.675Z,76.05
2019-06-10T09:58:24.812Z,76.72
2019-06-10T09:59:24.953Z,77.69
2019-06-10T10:00:25.081Z,76.47
2019-06-10T10:01:25.217Z,77.05
2019-06-10T10:02:25.362Z,75.51
2019-06-10T10:03:25.484Z,76.37
2019-06-10T10:04:25.616Z,76.37
2019-06-10T10:05:25.744Z,76.28
2019-06-10T10:06:25.892Z,77.25
2019-06-10T10:07:26.032Z,77.83
2019-06-10T10:08:26.162Z,77.05
2019-06-10T10:09:26.302Z,78.11
2019-06-10T10:10:26.445Z,78.59
2019-06-10T10:11:28.607Z,77.00
2019-06-10T10:12:26.710Z,76.80
2019-06-10T10:13:26.874Z,77.76
2019-06-10T10:14:27.009Z,79.12
2019-06-10T10:15:30.632Z,78.15
2019-06-10T10:16:27.272Z,76.22
2019-06-10T10:17:27.512Z,77.28
2019-06-10T10:18:27.526Z,76.51
2019-06-10T10:19:27.657Z,76.32
2019-06-10T10:20:27.804Z,76.42
2019-06-10T10:21:27.980Z,76.80
2019-06-10T10:22:28.106Z,76.51
2019-06-10T10:23:28.264Z,76.70
2019-06-10T10:24:28.395Z,77.38
2019-06-10T10:25:28.523Z,77.48
2019-06-10T10:26:28.661Z,76.55
2019-06-10T10:27:28.789Z,76.64
2019-06-10T10:28:29.009Z,77.13
2019-06-10T10:29:29.080Z,76.61
2019-06-10T10:30:29.224Z,75.64
2019-06-10T10:31:29.368Z,74.96
2019-06-10T10:32:29.498Z,75.06
2019-06-10T10:33:32.620Z,75.45
2019-06-10T10:34:29.771Z,75.26
2019-06-10T10:35:32.508Z,76.22
2019-06-10T10:36:30.062Z,75.54
2019-06-10T10:37:32.734Z,76.18
2019-06-10T10:38:30.342Z,74.93
2019-06-10T10:39:32.559Z,75.54
2019-06-10T10:40:32.625Z,76.61
2019-06-10T10:41:32.305Z,77.19
2019-06-10T10:42:42.680Z,75.35
2019-06-10T10:43:33.990Z,75.58
2019-06-10T10:44:31.174Z,76.45
2019-06-10T10:45:32.179Z,75.00
2019-06-10T10:46:32.594Z,75.10
2019-06-10T10:47:33.500Z,75.00
2019-06-10T10:48:33.550Z,74.81
2019-06-10T10:49:32.613Z,75.58
2019-06-10T10:50:34.171Z,74.32
2019-06-10T10:51:32.665Z,73.74
2019-06-10T10:52:33.096Z,73.26
2019-06-10T10:53:32.944Z,72.58
2019-06-10T10:54:36.467Z,73.26
2019-06-10T10:55:33.420Z,73.94
2019-06-10T10:56:33.940Z,73.65
2019-06-10T10:57:33.112Z,76.29
2019-06-10T10:58:33.452Z,73.16
2019-06-10T10:59:33.391Z,73.07
2019-06-10T11:00:37.416Z,71.52
2019-06-10T11:01:33.564Z,71.42
2019-06-10T11:02:33.739Z,71.72
2019-06-10T11:03:33.946Z,71.62
2019-06-10T11:04:34.006Z,72.00
2019-06-10T11:05:34.154Z,72.52
2019-06-10T11:06:34.332Z,72.62
2019-06-10T11:07:34.419Z,72.42
2019-06-10T11:08:34.562Z,72.42
2019-06-10T11:09:34.705Z,73.78
2019-06-10T11:10:34.852Z,74.17
2019-06-10T11:11:34.992Z,72.91
2019-06-10T11:12:35.147Z,72.62
2019-06-10T11:13:35.285Z,73.63
2019-06-10T11:14:35.417Z,74.30
2019-06-10T11:15:35.556Z,71.50
2019-06-10T11:16:35.691Z,70.82
2019-06-10T11:17:35.819Z,70.53
2019-06-10T11:18:36.092Z,69.75
2019-06-10T11:19:36.097Z,70.24
2019-06-10T11:20:36.243Z,70.08
2019-06-10T11:21:36.363Z,71.62
2019-06-10T11:22:36.503Z,72.02
2019-06-10T11:23:36.648Z,72.21
2019-06-10T11:24:41.139Z,72.98
2019-06-10T11:25:36.941Z,72.05
2019-06-10T11:26:37.091Z,71.08
2019-06-10T11:27:37.216Z,70.31
2019-06-10T11:28:37.367Z,69.53
2019-06-10T11:29:37.616Z,69.82
2019-06-10T11:30:37.667Z,69.21
2019-06-10T11:31:37.780Z,69.15
2019-06-10T11:32:38.110Z,72.15
2019-06-10T11:33:38.056Z,69.21
2019-06-10T11:34:38.190Z,69.59
2019-06-10T11:35:38.333Z,69.40
2019-06-10T11:36:38.605Z,68.91
2019-06-10T11:37:38.611Z,67.85
2019-06-10T11:38:38.752Z,68.82
2019-06-10T11:39:38.904Z,67.98
2019-06-10T11:40:39.044Z,68.95
2019-06-10T11:41:39.199Z,70.31
2019-06-10T11:42:39.306Z,67.46
2019-06-10T11:43:39.439Z,67.69
2019-06-10T11:44:39.601Z,68.66
2019-06-10T11:45:47.418Z,68.66
2019-06-10T11:46:39.888Z,68.85
2019-06-10T11:47:42.466Z,68.85
2019-06-10T11:48:40.198Z,65.37
2019-06-10T11:49:43.268Z,63.72
2019-06-10T11:50:42.837Z,65.66
2019-06-10T11:51:40.608Z,66.47
2019-06-10T11:52:43.176Z,67.92
2019-06-10T11:53:43.712Z,68.21
2019-06-10T11:54:53.761Z,67.69
2019-06-10T11:55:42.345Z,65.75
2019-06-10T11:56:42.194Z,65.27
2019-06-10T11:57:42.443Z,65.66
2019-06-10T11:58:42.700Z,65.37
2019-06-10T11:59:43.479Z,66.72
2019-06-10T12:00:42.663Z,65.43
2019-06-10T12:01:42.668Z,65.05
2019-06-10T12:02:42.465Z,66.72
2019-06-10T12:03:43.198Z,66.98
2019-06-10T12:04:42.480Z,66.69
2019-06-10T12:05:42.626Z,65.63
2019-06-10T12:06:42.805Z,66.66
2019-06-10T12:07:43.539Z,67.33
2019-06-10T12:08:43.772Z,66.95
2019-06-10T12:09:43.178Z,67.82
2019-06-10T12:10:43.516Z,67.14
2019-06-10T12:11:43.995Z,68.21
2019-06-10T12:12:43.583Z,69.27
2019-06-10T12:13:43.721Z,68.69
2019-06-10T12:14:43.883Z,68.30
2019-06-10T12:16:30.459Z,66.95
2019-06-10T12:17:17.565Z,68.30
2019-06-10T12:17:51.082Z,66.95
2019-06-10T12:18:44.442Z,67.82
2019-06-10T12:19:44.592Z,67.05
2019-06-10T12:20:44.730Z,67.24
2019-06-10T12:21:44.868Z,68.01
2019-06-10T12:22:45.008Z,68.11
2019-06-10T12:23:45.168Z,67.56
2019-06-10T12:24:45.291Z,66.50
2019-06-10T12:25:47.896Z,66.40
2019-06-10T12:26:45.574Z,67.79
2019-06-10T12:27:45.711Z,67.79
2019-06-10T12:28:45.870Z,66.34
2019-06-10T12:29:46.014Z,66.43
2019-06-10T12:30:46.142Z,65.75
2019-06-10T12:31:46.292Z,66.72
2019-06-10T12:32:46.427Z,66.53
2019-06-10T12:33:46.599Z,65.85
2019-06-10T12:34:46.704Z,66.27
2019-06-10T12:35:46.848Z,65.69
2019-06-10T12:36:46.987Z,65.40
2019-06-10T12:37:47.118Z,65.69
2019-06-10T12:38:47.273Z,67.14
2019-06-10T12:39:47.401Z,65.79
2019-06-10T12:40:47.552Z,65.11
2019-06-10T12:41:47.689Z,65.30
2019-06-10T12:42:47.824Z,64.79
2019-06-10T12:43:47.962Z,64.89
2019-06-10T12:44:48.508Z,64.98
2019-06-10T12:45:48.224Z,65.08
2019-06-10T12:46:48.369Z,65.17
2019-06-10T12:47:48.503Z,64.98
2019-06-10T12:48:48.633Z,64.30
2019-06-10T12:49:48.776Z,64.20
2019-06-10T12:50:48.909Z,63.92
2019-06-10T12:51:49.059Z,63.92
2019-06-10T12:52:49.185Z,65.53
2019-06-10T12:53:49.333Z,65.75